sensor_id;sensor_type;location;lat;lon;timestamp;P1;durP1;ratioP1;P2;durP2;ratioP2
15655;SDS011;7928;43.614;1.456;2023-06-05T00:01:13;2.30;;;1.37;;
15655;SDS011;7928;43.614;1.456;2023-06-05T00:03:40;2.53;;;1.60;;
15655;SDS011;7928;43.614;1.456;2023-06-05T00:06:08;2.60;;;1.50;;
15655;SDS011;7928;43.614;1.456;2023-06-05T00:08:37;2.93;;;1.50;;
15655;SDS011;7928;43.614;1.456;2023-06-05T00:11:04;3.83;;;1.87;;
15655;SDS011;7928;43.614;1.456;2023-06-05T00:13:31;3.37;;;1.63;;
15655;SDS011;7928;43.614;1.456;2023-06-05T00:15:58;2.40;;;1.60;;
15655;SDS011;7928;43.614;1.456;2023-06-05T00:18:28;3.80;;;1.60;;
15655;SDS011;7928;43.614;1.456;2023-06-05T00:20:55;3.43;;;1.67;;
15655;SDS011;7928;43.614;1.456;2023-06-05T00:23:22;3.30;;;1.93;;
15655;SDS011;7928;43.614;1.456;2023-06-05T00:25:50;1.80;;;1.57;;
15655;SDS011;7928;43.614;1.456;2023-06-05T00:28:17;2.23;;;1.90;;
15655;SDS011;7928;43.614;1.456;2023-06-05T00:30:44;7.10;;;2.37;;
15655;SDS011;7928;43.614;1.456;2023-06-05T00:33:11;5.37;;;2.07;;
15655;SDS011;7928;43.614;1.456;2023-06-05T00:35:38;2.70;;;1.57;;
15655;SDS011;7928;43.614;1.456;2023-06-05T00:38:05;5.63;;;2.20;;
15655;SDS011;7928;43.614;1.456;2023-06-05T00:40:32;2.37;;;2.07;;
15655;SDS011;7928;43.614;1.456;2023-06-05T00:43:01;2.90;;;1.60;;
15655;SDS011;7928;43.614;1.456;2023-06-05T00:45:30;4.73;;;2.20;;
15655;SDS011;7928;43.614;1.456;2023-06-05T00:47:57;2.40;;;2.07;;
15655;SDS011;7928;43.614;1.456;2023-06-05T00:50:25;4.77;;;2.10;;
15655;SDS011;7928;43.614;1.456;2023-06-05T00:52:52;5.23;;;2.30;;
15655;SDS011;7928;43.614;1.456;2023-06-05T00:55:20;2.67;;;1.70;;
15655;SDS011;7928;43.614;1.456;2023-06-05T00:57:47;8.73;;;2.80;;
15655;SDS011;7928;43.614;1.456;2023-06-05T01:00:16;2.67;;;1.80;;
15655;SDS011;7928;43.614;1.456;2023-06-05T01:02:43;5.03;;;2.50;;
15655;SDS011;7928;43.614;1.456;2023-06-05T01:05:10;3.17;;;2.17;;
15655;SDS011;7928;43.614;1.456;2023-06-05T01:07:39;2.37;;;2.17;;
15655;SDS011;7928;43.614;1.456;2023-06-05T01:10:06;3.30;;;1.93;;
15655;SDS011;7928;43.614;1.456;2023-06-05T01:12:36;3.30;;;2.30;;
15655;SDS011;7928;43.614;1.456;2023-06-05T01:15:09;4.20;;;1.90;;
15655;SDS011;7928;43.614;1.456;2023-06-05T01:17:38;4.20;;;2.53;;
15655;SDS011;7928;43.614;1.456;2023-06-05T01:20:07;3.40;;;2.50;;
15655;SDS011;7928;43.614;1.456;2023-06-05T01:22:36;3.50;;;2.83;;
15655;SDS011;7928;43.614;1.456;2023-06-05T01:25:06;3.50;;;2.87;;
15655;SDS011;7928;43.614;1.456;2023-06-05T01:27:36;3.03;;;2.60;;
15655;SDS011;7928;43.614;1.456;2023-06-05T01:30:09;4.43;;;2.67;;
15655;SDS011;7928;43.614;1.456;2023-06-05T01:32:42;3.17;;;2.67;;
15655;SDS011;7928;43.614;1.456;2023-06-05T01:35:13;4.60;;;2.90;;
15655;SDS011;7928;43.614;1.456;2023-06-05T01:37:43;5.60;;;2.63;;
15655;SDS011;7928;43.614;1.456;2023-06-05T01:40:15;2.90;;;2.40;;
15655;SDS011;7928;43.614;1.456;2023-06-05T01:42:43;3.47;;;2.63;;
15655;SDS011;7928;43.614;1.456;2023-06-05T01:45:11;3.10;;;2.80;;
15655;SDS011;7928;43.614;1.456;2023-06-05T01:47:38;3.63;;;2.87;;
15655;SDS011;7928;43.614;1.456;2023-06-05T01:50:06;3.10;;;2.73;;
15655;SDS011;7928;43.614;1.456;2023-06-05T01:52:37;2.43;;;2.23;;
15655;SDS011;7928;43.614;1.456;2023-06-05T01:55:06;5.77;;;2.97;;
15655;SDS011;7928;43.614;1.456;2023-06-05T01:57:41;3.50;;;2.97;;
15655;SDS011;7928;43.614;1.456;2023-06-05T02:00:08;4.63;;;2.93;;
15655;SDS011;7928;43.614;1.456;2023-06-05T02:02:38;3.90;;;2.73;;
15655;SDS011;7928;43.614;1.456;2023-06-05T02:05:07;4.73;;;2.73;;
15655;SDS011;7928;43.614;1.456;2023-06-05T02:07:35;3.27;;;2.80;;
15655;SDS011;7928;43.614;1.456;2023-06-05T02:10:05;4.87;;;3.00;;
15655;SDS011;7928;43.614;1.456;2023-06-05T02:12:33;5.03;;;3.10;;
15655;SDS011;7928;43.614;1.456;2023-06-05T02:15:04;4.07;;;3.10;;
15655;SDS011;7928;43.614;1.456;2023-06-05T02:17:31;3.60;;;2.90;;
15655;SDS011;7928;43.614;1.456;2023-06-05T02:19:59;3.93;;;3.10;;
15655;SDS011;7928;43.614;1.456;2023-06-05T02:22:26;3.53;;;3.03;;
15655;SDS011;7928;43.614;1.456;2023-06-05T02:24:53;3.87;;;3.40;;
15655;SDS011;7928;43.614;1.456;2023-06-05T02:27:20;3.47;;;3.03;;
15655;SDS011;7928;43.614;1.456;2023-06-05T02:29:49;4.73;;;3.50;;
15655;SDS011;7928;43.614;1.456;2023-06-05T02:32:18;4.83;;;3.20;;
15655;SDS011;7928;43.614;1.456;2023-06-05T02:34:45;3.60;;;2.80;;
15655;SDS011;7928;43.614;1.456;2023-06-05T02:37:12;4.27;;;3.20;;
15655;SDS011;7928;43.614;1.456;2023-06-05T02:39:39;3.73;;;3.00;;
15655;SDS011;7928;43.614;1.456;2023-06-05T02:42:06;4.20;;;3.30;;
15655;SDS011;7928;43.614;1.456;2023-06-05T02:44:34;3.97;;;3.43;;
15655;SDS011;7928;43.614;1.456;2023-06-05T02:47:01;3.40;;;3.13;;
15655;SDS011;7928;43.614;1.456;2023-06-05T02:49:29;6.00;;;3.40;;
15655;SDS011;7928;43.614;1.456;2023-06-05T02:51:57;5.03;;;3.73;;
15655;SDS011;7928;43.614;1.456;2023-06-05T02:54:25;3.30;;;2.70;;
15655;SDS011;7928;43.614;1.456;2023-06-05T02:56:53;3.80;;;3.40;;
15655;SDS011;7928;43.614;1.456;2023-06-05T02:59:21;4.57;;;3.63;;
15655;SDS011;7928;43.614;1.456;2023-06-05T03:01:50;4.37;;;3.93;;
15655;SDS011;7928;43.614;1.456;2023-06-05T03:04:17;4.03;;;3.63;;
15655;SDS011;7928;43.614;1.456;2023-06-05T03:06:47;3.77;;;3.43;;
15655;SDS011;7928;43.614;1.456;2023-06-05T03:09:15;3.67;;;3.37;;
15655;SDS011;7928;43.614;1.456;2023-06-05T03:11:42;4.40;;;3.70;;
15655;SDS011;7928;43.614;1.456;2023-06-05T03:14:10;4.93;;;3.43;;
15655;SDS011;7928;43.614;1.456;2023-06-05T03:16:36;4.20;;;3.23;;
15655;SDS011;7928;43.614;1.456;2023-06-05T03:19:06;6.33;;;3.60;;
15655;SDS011;7928;43.614;1.456;2023-06-05T03:21:34;4.53;;;3.53;;
15655;SDS011;7928;43.614;1.456;2023-06-05T03:24:02;5.20;;;3.67;;
15655;SDS011;7928;43.614;1.456;2023-06-05T03:26:30;5.10;;;3.40;;
15655;SDS011;7928;43.614;1.456;2023-06-05T03:28:59;4.30;;;3.90;;
15655;SDS011;7928;43.614;1.456;2023-06-05T03:31:26;5.60;;;3.97;;
15655;SDS011;7928;43.614;1.456;2023-06-05T03:33:52;7.03;;;3.87;;
15655;SDS011;7928;43.614;1.456;2023-06-05T03:36:20;4.67;;;3.47;;
15655;SDS011;7928;43.614;1.456;2023-06-05T03:38:48;4.83;;;4.33;;
15655;SDS011;7928;43.614;1.456;2023-06-05T03:41:16;4.53;;;3.50;;
15655;SDS011;7928;43.614;1.456;2023-06-05T03:43:43;5.80;;;4.20;;
15655;SDS011;7928;43.614;1.456;2023-06-05T03:46:10;5.70;;;3.73;;
15655;SDS011;7928;43.614;1.456;2023-06-05T03:48:44;4.43;;;3.97;;
15655;SDS011;7928;43.614;1.456;2023-06-05T03:51:11;5.10;;;3.30;;
15655;SDS011;7928;43.614;1.456;2023-06-05T03:53:38;4.63;;;3.60;;
15655;SDS011;7928;43.614;1.456;2023-06-05T03:56:08;5.33;;;3.73;;
15655;SDS011;7928;43.614;1.456;2023-06-05T03:58:36;4.37;;;3.97;;
15655;SDS011;7928;43.614;1.456;2023-06-05T04:01:04;4.40;;;3.70;;
15655;SDS011;7928;43.614;1.456;2023-06-05T04:03:32;7.20;;;3.80;;
15655;SDS011;7928;43.614;1.456;2023-06-05T04:06:02;5.97;;;4.23;;
15655;SDS011;7928;43.614;1.456;2023-06-05T04:08:30;4.90;;;4.10;;
15655;SDS011;7928;43.614;1.456;2023-06-05T04:10:57;5.03;;;3.80;;
15655;SDS011;7928;43.614;1.456;2023-06-05T04:13:24;4.40;;;3.80;;
15655;SDS011;7928;43.614;1.456;2023-06-05T04:15:53;4.67;;;3.93;;
15655;SDS011;7928;43.614;1.456;2023-06-05T04:18:20;6.37;;;3.80;;
15655;SDS011;7928;43.614;1.456;2023-06-05T04:20:47;4.90;;;3.83;;
15655;SDS011;7928;43.614;1.456;2023-06-05T04:23:14;6.63;;;4.20;;
15655;SDS011;7928;43.614;1.456;2023-06-05T04:25:41;5.47;;;4.97;;
15655;SDS011;7928;43.614;1.456;2023-06-05T04:28:10;5.80;;;4.30;;
15655;SDS011;7928;43.614;1.456;2023-06-05T04:30:37;5.67;;;4.30;;
15655;SDS011;7928;43.614;1.456;2023-06-05T04:33:06;5.10;;;3.77;;
15655;SDS011;7928;43.614;1.456;2023-06-05T04:35:33;6.43;;;3.97;;
15655;SDS011;7928;43.614;1.456;2023-06-05T04:38:00;4.50;;;4.10;;
15655;SDS011;7928;43.614;1.456;2023-06-05T04:40:27;7.20;;;4.60;;
15655;SDS011;7928;43.614;1.456;2023-06-05T04:42:55;5.13;;;4.20;;
15655;SDS011;7928;43.614;1.456;2023-06-05T04:45:23;7.33;;;4.20;;
15655;SDS011;7928;43.614;1.456;2023-06-05T04:47:50;4.73;;;4.30;;
15655;SDS011;7928;43.614;1.456;2023-06-05T04:50:23;5.00;;;4.50;;
15655;SDS011;7928;43.614;1.456;2023-06-05T04:52:51;6.60;;;5.10;;
15655;SDS011;7928;43.614;1.456;2023-06-05T04:55:19;5.13;;;4.63;;
15655;SDS011;7928;43.614;1.456;2023-06-05T04:57:46;5.93;;;5.00;;
15655;SDS011;7928;43.614;1.456;2023-06-05T05:00:14;5.90;;;4.60;;
15655;SDS011;7928;43.614;1.456;2023-06-05T05:02:41;6.97;;;5.10;;
15655;SDS011;7928;43.614;1.456;2023-06-05T05:05:08;8.27;;;5.07;;
15655;SDS011;7928;43.614;1.456;2023-06-05T05:07:39;5.30;;;4.80;;
15655;SDS011;7928;43.614;1.456;2023-06-05T05:10:07;5.73;;;5.10;;
15655;SDS011;7928;43.614;1.456;2023-06-05T05:12:35;6.83;;;5.13;;
15655;SDS011;7928;43.614;1.456;2023-06-05T05:15:02;5.50;;;4.63;;
15655;SDS011;7928;43.614;1.456;2023-06-05T05:17:30;6.03;;;5.43;;
15655;SDS011;7928;43.614;1.456;2023-06-05T05:19:57;5.80;;;4.77;;
15655;SDS011;7928;43.614;1.456;2023-06-05T05:22:24;5.50;;;5.00;;
15655;SDS011;7928;43.614;1.456;2023-06-05T05:24:52;7.97;;;5.00;;
15655;SDS011;7928;43.614;1.456;2023-06-05T05:27:19;7.40;;;5.20;;
15655;SDS011;7928;43.614;1.456;2023-06-05T05:29:46;7.67;;;4.70;;
15655;SDS011;7928;43.614;1.456;2023-06-05T05:32:13;7.10;;;4.77;;
15655;SDS011;7928;43.614;1.456;2023-06-05T05:34:40;6.87;;;6.20;;
15655;SDS011;7928;43.614;1.456;2023-06-05T05:37:07;9.50;;;5.30;;
15655;SDS011;7928;43.614;1.456;2023-06-05T05:39:34;5.07;;;4.57;;
15655;SDS011;7928;43.614;1.456;2023-06-05T05:42:03;5.57;;;4.67;;
15655;SDS011;7928;43.614;1.456;2023-06-05T05:44:30;5.77;;;4.60;;
15655;SDS011;7928;43.614;1.456;2023-06-05T05:46:57;5.93;;;4.47;;
15655;SDS011;7928;43.614;1.456;2023-06-05T05:49:24;9.03;;;5.17;;
15655;SDS011;7928;43.614;1.456;2023-06-05T05:51:51;7.30;;;4.33;;
15655;SDS011;7928;43.614;1.456;2023-06-05T05:54:18;5.93;;;4.97;;
15655;SDS011;7928;43.614;1.456;2023-06-05T05:56:47;8.77;;;4.97;;
15655;SDS011;7928;43.614;1.456;2023-06-05T05:59:15;9.37;;;5.30;;
15655;SDS011;7928;43.614;1.456;2023-06-05T06:01:42;7.40;;;4.90;;
15655;SDS011;7928;43.614;1.456;2023-06-05T06:04:10;8.97;;;5.43;;
15655;SDS011;7928;43.614;1.456;2023-06-05T06:06:37;8.17;;;5.77;;
15655;SDS011;7928;43.614;1.456;2023-06-05T06:09:05;5.93;;;4.50;;
15655;SDS011;7928;43.614;1.456;2023-06-05T06:11:33;8.17;;;4.77;;
15655;SDS011;7928;43.614;1.456;2023-06-05T06:14:00;8.00;;;4.80;;
15655;SDS011;7928;43.614;1.456;2023-06-05T06:16:28;5.13;;;4.53;;
15655;SDS011;7928;43.614;1.456;2023-06-05T06:18:55;7.17;;;4.53;;
15655;SDS011;7928;43.614;1.456;2023-06-05T06:21:22;8.23;;;5.17;;
15655;SDS011;7928;43.614;1.456;2023-06-05T06:23:50;5.40;;;4.27;;
15655;SDS011;7928;43.614;1.456;2023-06-05T06:26:17;7.30;;;3.70;;
15655;SDS011;7928;43.614;1.456;2023-06-05T06:28:44;5.43;;;4.70;;
15655;SDS011;7928;43.614;1.456;2023-06-05T06:31:11;7.67;;;4.50;;
15655;SDS011;7928;43.614;1.456;2023-06-05T06:33:41;7.03;;;5.20;;
15655;SDS011;7928;43.614;1.456;2023-06-05T06:36:09;8.00;;;4.27;;
15655;SDS011;7928;43.614;1.456;2023-06-05T06:38:37;7.07;;;3.80;;
15655;SDS011;7928;43.614;1.456;2023-06-05T06:41:04;4.93;;;4.00;;
15655;SDS011;7928;43.614;1.456;2023-06-05T06:43:31;6.47;;;3.60;;
15655;SDS011;7928;43.614;1.456;2023-06-05T06:45:58;4.50;;;3.40;;
15655;SDS011;7928;43.614;1.456;2023-06-05T06:48:25;4.80;;;3.07;;
15655;SDS011;7928;43.614;1.456;2023-06-05T06:50:53;5.27;;;4.13;;
15655;SDS011;7928;43.614;1.456;2023-06-05T06:53:20;5.00;;;3.40;;
15655;SDS011;7928;43.614;1.456;2023-06-05T06:55:47;3.77;;;3.37;;
15655;SDS011;7928;43.614;1.456;2023-06-05T06:58:15;4.47;;;3.43;;
15655;SDS011;7928;43.614;1.456;2023-06-05T07:00:43;4.83;;;3.13;;
15655;SDS011;7928;43.614;1.456;2023-06-05T07:03:10;6.40;;;3.70;;
15655;SDS011;7928;43.614;1.456;2023-06-05T07:05:37;5.57;;;3.27;;
15655;SDS011;7928;43.614;1.456;2023-06-05T07:08:05;6.23;;;3.40;;
15655;SDS011;7928;43.614;1.456;2023-06-05T07:10:32;6.53;;;4.00;;
15655;SDS011;7928;43.614;1.456;2023-06-05T07:12:59;5.20;;;3.37;;
15655;SDS011;7928;43.614;1.456;2023-06-05T07:15:26;5.33;;;3.20;;
15655;SDS011;7928;43.614;1.456;2023-06-05T07:17:53;5.43;;;3.47;;
15655;SDS011;7928;43.614;1.456;2023-06-05T07:20:20;4.53;;;3.10;;
15655;SDS011;7928;43.614;1.456;2023-06-05T07:22:47;3.67;;;3.07;;
15655;SDS011;7928;43.614;1.456;2023-06-05T07:25:16;5.37;;;3.30;;
15655;SDS011;7928;43.614;1.456;2023-06-05T07:27:46;6.40;;;3.50;;
15655;SDS011;7928;43.614;1.456;2023-06-05T07:30:13;5.27;;;3.57;;
15655;SDS011;7928;43.614;1.456;2023-06-05T07:32:40;5.77;;;3.47;;
15655;SDS011;7928;43.614;1.456;2023-06-05T07:35:10;6.10;;;3.40;;
15655;SDS011;7928;43.614;1.456;2023-06-05T07:37:38;6.60;;;3.40;;
15655;SDS011;7928;43.614;1.456;2023-06-05T07:40:06;4.27;;;3.00;;
15655;SDS011;7928;43.614;1.456;2023-06-05T07:42:35;8.17;;;3.87;;
15655;SDS011;7928;43.614;1.456;2023-06-05T07:45:02;4.57;;;3.47;;
15655;SDS011;7928;43.614;1.456;2023-06-05T07:47:29;4.27;;;3.43;;
15655;SDS011;7928;43.614;1.456;2023-06-05T07:49:57;5.63;;;4.10;;
15655;SDS011;7928;43.614;1.456;2023-06-05T07:52:25;9.70;;;4.03;;
15655;SDS011;7928;43.614;1.456;2023-06-05T07:54:52;3.97;;;3.40;;
15655;SDS011;7928;43.614;1.456;2023-06-05T07:57:19;5.10;;;3.37;;
15655;SDS011;7928;43.614;1.456;2023-06-05T07:59:48;6.27;;;3.30;;
15655;SDS011;7928;43.614;1.456;2023-06-05T08:02:15;5.83;;;4.20;;
15655;SDS011;7928;43.614;1.456;2023-06-05T08:04:43;6.00;;;3.37;;
15655;SDS011;7928;43.614;1.456;2023-06-05T08:07:10;7.17;;;3.70;;
15655;SDS011;7928;43.614;1.456;2023-06-05T08:09:37;3.90;;;3.30;;
15655;SDS011;7928;43.614;1.456;2023-06-05T08:12:04;7.57;;;3.70;;
15655;SDS011;7928;43.614;1.456;2023-06-05T08:14:32;13.13;;;4.40;;
15655;SDS011;7928;43.614;1.456;2023-06-05T08:17:02;8.93;;;3.73;;
15655;SDS011;7928;43.614;1.456;2023-06-05T08:19:29;6.23;;;3.93;;
15655;SDS011;7928;43.614;1.456;2023-06-05T08:21:56;5.70;;;3.83;;
15655;SDS011;7928;43.614;1.456;2023-06-05T08:24:23;16.23;;;4.70;;
15655;SDS011;7928;43.614;1.456;2023-06-05T08:26:52;6.73;;;4.03;;
15655;SDS011;7928;43.614;1.456;2023-06-05T08:29:19;11.30;;;5.23;;
15655;SDS011;7928;43.614;1.456;2023-06-05T08:31:46;4.80;;;3.10;;
15655;SDS011;7928;43.614;1.456;2023-06-05T08:34:14;6.20;;;4.63;;
15655;SDS011;7928;43.614;1.456;2023-06-05T08:36:41;7.93;;;4.37;;
15655;SDS011;7928;43.614;1.456;2023-06-05T08:39:09;6.00;;;3.87;;
15655;SDS011;7928;43.614;1.456;2023-06-05T08:41:36;8.53;;;4.73;;
15655;SDS011;7928;43.614;1.456;2023-06-05T08:44:04;5.17;;;4.67;;
15655;SDS011;7928;43.614;1.456;2023-06-05T08:46:31;5.47;;;3.87;;
15655;SDS011;7928;43.614;1.456;2023-06-05T08:49:04;5.63;;;4.37;;
15655;SDS011;7928;43.614;1.456;2023-06-05T08:51:38;5.17;;;4.10;;
15655;SDS011;7928;43.614;1.456;2023-06-05T08:54:06;5.27;;;3.93;;
15655;SDS011;7928;43.614;1.456;2023-06-05T08:56:38;6.20;;;4.63;;
15655;SDS011;7928;43.614;1.456;2023-06-05T08:59:06;8.87;;;4.40;;
15655;SDS011;7928;43.614;1.456;2023-06-05T09:01:33;7.87;;;4.70;;
15655;SDS011;7928;43.614;1.456;2023-06-05T09:04:00;5.27;;;4.57;;
15655;SDS011;7928;43.614;1.456;2023-06-05T09:06:27;7.90;;;4.80;;
15655;SDS011;7928;43.614;1.456;2023-06-05T09:08:59;5.83;;;5.00;;
15655;SDS011;7928;43.614;1.456;2023-06-05T09:11:27;6.67;;;5.10;;
15655;SDS011;7928;43.614;1.456;2023-06-05T09:13:56;6.70;;;4.60;;
15655;SDS011;7928;43.614;1.456;2023-06-05T09:16:32;9.70;;;4.80;;
15655;SDS011;7928;43.614;1.456;2023-06-05T09:19:00;9.23;;;5.40;;
15655;SDS011;7928;43.614;1.456;2023-06-05T09:21:27;4.93;;;4.43;;
15655;SDS011;7928;43.614;1.456;2023-06-05T09:24:16;8.37;;;4.90;;
15655;SDS011;7928;43.614;1.456;2023-06-05T09:26:55;4.97;;;4.10;;
15655;SDS011;7928;43.614;1.456;2023-06-05T09:29:23;4.43;;;4.00;;
15655;SDS011;7928;43.614;1.456;2023-06-05T09:31:52;12.83;;;4.37;;
15655;SDS011;7928;43.614;1.456;2023-06-05T09:34:23;7.60;;;4.30;;
15655;SDS011;7928;43.614;1.456;2023-06-05T09:36:52;5.57;;;4.10;;
15655;SDS011;7928;43.614;1.456;2023-06-05T09:39:21;7.40;;;4.03;;
15655;SDS011;7928;43.614;1.456;2023-06-05T09:41:50;8.23;;;4.23;;
15655;SDS011;7928;43.614;1.456;2023-06-05T09:44:17;32.90;;;6.23;;
15655;SDS011;7928;43.614;1.456;2023-06-05T09:46:51;8.83;;;4.13;;
15655;SDS011;7928;43.614;1.456;2023-06-05T09:49:20;16.33;;;4.60;;
15655;SDS011;7928;43.614;1.456;2023-06-05T09:51:47;11.30;;;4.30;;
15655;SDS011;7928;43.614;1.456;2023-06-05T09:54:14;4.80;;;3.40;;
15655;SDS011;7928;43.614;1.456;2023-06-05T09:56:46;3.60;;;3.30;;
15655;SDS011;7928;43.614;1.456;2023-06-05T09:59:20;6.53;;;3.70;;
15655;SDS011;7928;43.614;1.456;2023-06-05T10:01:48;4.90;;;4.00;;
15655;SDS011;7928;43.614;1.456;2023-06-05T10:04:19;8.67;;;4.40;;
15655;SDS011;7928;43.614;1.456;2023-06-05T10:06:48;5.82;;;4.22;;
15655;SDS011;7928;43.614;1.456;2023-06-05T10:09:17;8.18;;;4.15;;
15655;SDS011;7928;43.614;1.456;2023-06-05T10:11:48;6.20;;;4.40;;
15655;SDS011;7928;43.614;1.456;2023-06-05T10:14:16;10.83;;;4.37;;
15655;SDS011;7928;43.614;1.456;2023-06-05T10:16:44;5.97;;;4.50;;
15655;SDS011;7928;43.614;1.456;2023-06-05T10:19:15;6.70;;;3.92;;
15655;SDS011;7928;43.614;1.456;2023-06-05T10:21:45;4.75;;;3.97;;
15655;SDS011;7928;43.614;1.456;2023-06-05T10:24:14;5.70;;;3.75;;
15655;SDS011;7928;43.614;1.456;2023-06-05T10:27:02;9.50;;;4.32;;
15655;SDS011;7928;43.614;1.456;2023-06-05T10:29:55;7.10;;;3.90;;
15655;SDS011;7928;43.614;1.456;2023-06-05T10:32:40;4.80;;;3.42;;
15655;SDS011;7928;43.614;1.456;2023-06-05T10:35:16;5.13;;;3.75;;
15655;SDS011;7928;43.614;1.456;2023-06-05T10:37:56;6.13;;;3.58;;
15655;SDS011;7928;43.614;1.456;2023-06-05T10:40:33;4.65;;;4.13;;
15655;SDS011;7928;43.614;1.456;2023-06-05T10:45:51;11.98;;;4.47;;
15655;SDS011;7928;43.614;1.456;2023-06-05T10:48:18;6.28;;;4.03;;
15655;SDS011;7928;43.614;1.456;2023-06-05T10:50:45;5.97;;;3.45;;
15655;SDS011;7928;43.614;1.456;2023-06-05T10:59:13;5.13;;;3.70;;
15655;SDS011;7928;43.614;1.456;2023-06-05T11:01:41;3.38;;;3.08;;
15655;SDS011;7928;43.614;1.456;2023-06-05T11:04:08;5.20;;;3.30;;
15655;SDS011;7928;43.614;1.456;2023-06-05T11:06:36;4.38;;;3.72;;
15655;SDS011;7928;43.614;1.456;2023-06-05T11:09:07;4.55;;;3.30;;
15655;SDS011;7928;43.614;1.456;2023-06-05T11:11:55;4.10;;;3.17;;
15655;SDS011;7928;43.614;1.456;2023-06-05T11:17:27;8.18;;;3.00;;
15655;SDS011;7928;43.614;1.456;2023-06-05T11:19:55;4.95;;;3.03;;
15655;SDS011;7928;43.614;1.456;2023-06-05T11:22:22;3.90;;;3.33;;
15655;SDS011;7928;43.614;1.456;2023-06-05T11:27:55;4.28;;;3.00;;
15655;SDS011;7928;43.614;1.456;2023-06-05T11:30:25;9.38;;;3.67;;
15655;SDS011;7928;43.614;1.456;2023-06-05T11:32:58;6.97;;;3.45;;
15655;SDS011;7928;43.614;1.456;2023-06-05T11:35:34;3.92;;;3.38;;
15655;SDS011;7928;43.614;1.456;2023-06-05T11:38:08;3.20;;;2.80;;
15655;SDS011;7928;43.614;1.456;2023-06-05T11:40:35;6.05;;;3.10;;
15655;SDS011;7928;43.614;1.456;2023-06-05T11:43:03;4.70;;;2.60;;
15655;SDS011;7928;43.614;1.456;2023-06-05T11:45:32;3.17;;;2.83;;
15655;SDS011;7928;43.614;1.456;2023-06-05T11:48:05;3.40;;;3.10;;
15655;SDS011;7928;43.614;1.456;2023-06-05T11:50:33;6.25;;;3.33;;
15655;SDS011;7928;43.614;1.456;2023-06-05T11:53:03;5.93;;;3.70;;
15655;SDS011;7928;43.614;1.456;2023-06-05T11:55:31;6.22;;;3.65;;
15655;SDS011;7928;43.614;1.456;2023-06-05T11:58:08;4.28;;;3.17;;
15655;SDS011;7928;43.614;1.456;2023-06-05T12:00:36;3.88;;;2.88;;
15655;SDS011;7928;43.614;1.456;2023-06-05T12:03:04;5.15;;;2.90;;
15655;SDS011;7928;43.614;1.456;2023-06-05T12:05:31;5.70;;;2.70;;
15655;SDS011;7928;43.614;1.456;2023-06-05T12:10:51;4.07;;;3.08;;
15655;SDS011;7928;43.614;1.456;2023-06-05T12:13:18;4.45;;;3.30;;
15655;SDS011;7928;43.614;1.456;2023-06-05T12:15:55;6.50;;;3.25;;
15655;SDS011;7928;43.614;1.456;2023-06-05T12:18:31;3.78;;;3.35;;
15655;SDS011;7928;43.614;1.456;2023-06-05T12:20:59;5.55;;;3.58;;
15655;SDS011;7928;43.614;1.456;2023-06-05T12:23:28;3.35;;;3.05;;
15655;SDS011;7928;43.614;1.456;2023-06-05T12:25:58;3.35;;;3.00;;
15655;SDS011;7928;43.614;1.456;2023-06-05T12:28:26;3.45;;;3.08;;
15655;SDS011;7928;43.614;1.456;2023-06-05T12:30:53;3.20;;;2.90;;
15655;SDS011;7928;43.614;1.456;2023-06-05T12:33:20;3.47;;;3.17;;
15655;SDS011;7928;43.614;1.456;2023-06-05T12:36:03;3.83;;;2.75;;
15655;SDS011;7928;43.614;1.456;2023-06-05T12:38:30;3.10;;;2.70;;
15655;SDS011;7928;43.614;1.456;2023-06-05T12:41:03;4.85;;;3.03;;
15655;SDS011;7928;43.614;1.456;2023-06-05T12:43:31;3.55;;;2.83;;
15655;SDS011;7928;43.614;1.456;2023-06-05T12:45:58;5.93;;;2.63;;
15655;SDS011;7928;43.614;1.456;2023-06-05T12:48:25;3.55;;;2.30;;
15655;SDS011;7928;43.614;1.456;2023-06-05T12:50:52;4.05;;;2.15;;
15655;SDS011;7928;43.614;1.456;2023-06-05T12:53:22;6.20;;;2.38;;
15655;SDS011;7928;43.614;1.456;2023-06-05T12:55:50;2.42;;;2.00;;
15655;SDS011;7928;43.614;1.456;2023-06-05T12:58:17;4.57;;;2.58;;
15655;SDS011;7928;43.614;1.456;2023-06-05T13:00:44;2.95;;;2.20;;
15655;SDS011;7928;43.614;1.456;2023-06-05T13:03:12;3.85;;;2.60;;
15655;SDS011;7928;43.614;1.456;2023-06-05T13:05:39;8.45;;;3.03;;
15655;SDS011;7928;43.614;1.456;2023-06-05T13:08:06;6.60;;;2.72;;
15655;SDS011;7928;43.614;1.456;2023-06-05T13:10:34;5.35;;;2.67;;
15655;SDS011;7928;43.614;1.456;2023-06-05T13:13:01;4.07;;;2.70;;
15655;SDS011;7928;43.614;1.456;2023-06-05T13:15:28;5.53;;;2.35;;
15655;SDS011;7928;43.614;1.456;2023-06-05T13:17:56;4.65;;;1.95;;
15655;SDS011;7928;43.614;1.456;2023-06-05T13:20:23;2.33;;;1.75;;
15655;SDS011;7928;43.614;1.456;2023-06-05T13:22:50;3.08;;;1.88;;
15655;SDS011;7928;43.614;1.456;2023-06-05T13:25:17;4.68;;;2.40;;
15655;SDS011;7928;43.614;1.456;2023-06-05T13:27:46;3.03;;;2.75;;
15655;SDS011;7928;43.614;1.456;2023-06-05T13:30:13;3.00;;;2.00;;
15655;SDS011;7928;43.614;1.456;2023-06-05T13:32:40;3.17;;;1.90;;
15655;SDS011;7928;43.614;1.456;2023-06-05T13:35:10;2.40;;;1.70;;
15655;SDS011;7928;43.614;1.456;2023-06-05T13:37:37;2.30;;;1.80;;
15655;SDS011;7928;43.614;1.456;2023-06-05T13:40:06;2.08;;;1.88;;
15655;SDS011;7928;43.614;1.456;2023-06-05T13:42:35;3.13;;;2.08;;
15655;SDS011;7928;43.614;1.456;2023-06-05T13:45:04;7.10;;;2.13;;
15655;SDS011;7928;43.614;1.456;2023-06-05T13:47:32;2.67;;;2.20;;
15655;SDS011;7928;43.614;1.456;2023-06-05T13:49:59;3.90;;;3.20;;
15655;SDS011;7928;43.614;1.456;2023-06-05T13:52:26;2.08;;;1.90;;
15655;SDS011;7928;43.614;1.456;2023-06-05T13:54:53;3.38;;;2.40;;
15655;SDS011;7928;43.614;1.456;2023-06-05T13:57:20;2.08;;;1.95;;
15655;SDS011;7928;43.614;1.456;2023-06-05T13:59:47;4.85;;;3.50;;
15655;SDS011;7928;43.614;1.456;2023-06-05T14:02:16;4.65;;;1.90;;
15655;SDS011;7928;43.614;1.456;2023-06-05T14:04:43;3.08;;;1.88;;
15655;SDS011;7928;43.614;1.456;2023-06-05T14:07:10;4.03;;;2.13;;
15655;SDS011;7928;43.614;1.456;2023-06-05T14:09:37;3.95;;;1.60;;
15655;SDS011;7928;43.614;1.456;2023-06-05T14:12:04;8.73;;;1.85;;
15655;SDS011;7928;43.614;1.456;2023-06-05T14:14:32;2.30;;;2.10;;
15655;SDS011;7928;43.614;1.456;2023-06-05T14:16:59;2.63;;;1.90;;
15655;SDS011;7928;43.614;1.456;2023-06-05T14:19:27;2.92;;;2.13;;
15655;SDS011;7928;43.614;1.456;2023-06-05T14:21:54;3.80;;;1.77;;
15655;SDS011;7928;43.614;1.456;2023-06-05T14:24:22;3.67;;;1.75;;
15655;SDS011;7928;43.614;1.456;2023-06-05T14:26:50;2.40;;;1.67;;
15655;SDS011;7928;43.614;1.456;2023-06-05T14:29:17;2.58;;;1.70;;
15655;SDS011;7928;43.614;1.456;2023-06-05T14:31:44;2.20;;;1.55;;
15655;SDS011;7928;43.614;1.456;2023-06-05T14:34:11;3.70;;;2.00;;
15655;SDS011;7928;43.614;1.456;2023-06-05T14:36:39;2.53;;;1.70;;
15655;SDS011;7928;43.614;1.456;2023-06-05T14:39:06;1.80;;;1.50;;
15655;SDS011;7928;43.614;1.456;2023-06-05T14:41:34;3.30;;;1.80;;
15655;SDS011;7928;43.614;1.456;2023-06-05T14:44:01;2.35;;;1.88;;
15655;SDS011;7928;43.614;1.456;2023-06-05T14:46:28;4.20;;;1.73;;
15655;SDS011;7928;43.614;1.456;2023-06-05T14:48:55;4.57;;;2.00;;
15655;SDS011;7928;43.614;1.456;2023-06-05T14:51:21;5.63;;;1.67;;
15655;SDS011;7928;43.614;1.456;2023-06-05T14:53:50;2.13;;;1.52;;
15655;SDS011;7928;43.614;1.456;2023-06-05T14:56:17;2.20;;;2.00;;
15655;SDS011;7928;43.614;1.456;2023-06-05T14:58:44;8.73;;;2.00;;
15655;SDS011;7928;43.614;1.456;2023-06-05T15:01:11;5.55;;;1.83;;
15655;SDS011;7928;43.614;1.456;2023-06-05T15:03:39;2.85;;;1.88;;
15655;SDS011;7928;43.614;1.456;2023-06-05T15:06:06;1.98;;;1.63;;
15655;SDS011;7928;43.614;1.456;2023-06-05T15:08:33;2.92;;;1.50;;
15655;SDS011;7928;43.614;1.456;2023-06-05T15:11:01;3.42;;;1.80;;
15655;SDS011;7928;43.614;1.456;2023-06-05T15:13:28;2.15;;;1.70;;
15655;SDS011;7928;43.614;1.456;2023-06-05T15:15:55;3.20;;;1.98;;
15655;SDS011;7928;43.614;1.456;2023-06-05T15:18:24;2.13;;;1.92;;
15655;SDS011;7928;43.614;1.456;2023-06-05T15:20:51;2.72;;;1.50;;
15655;SDS011;7928;43.614;1.456;2023-06-05T15:23:18;2.08;;;1.85;;
15655;SDS011;7928;43.614;1.456;2023-06-05T15:25:45;2.20;;;2.00;;